Time;durP1;ratioP1;P1;durP2;ratioP2;P2;SDS_P1;SDS_P2;PMS_P1;PMS_P2;Temp;Humidity;BMP_temperature;BMP_pressure;BME280_temperature;BME280_humidity;BME280_pressure;Samples;Min_cycle;Max_cycle;Signal;HPM_P1;HPM_P2
2022/10/15 00:02:03;;;;;;;14.38;11.10;;;;;;;12.20;100.00;95996.38;10531473;28;20214;-62
2022/10/15 00:07:04;;;;;;;16.92;10.93;;;;;;;12.11;100.00;95999.09;10531826;28;20231;-62
2022/10/15 00:12:04;;;;;;;15.85;11.77;;;;;;;12.04;100.00;96013.16;10531482;28;20222;-61
2022/10/15 00:17:05;;;;;;;17.52;11.65;;;;;;;12.05;100.00;96012.13;10531783;28;20670;-58
2022/10/15 00:22:05;;;;;;;19.00;12.40;;;;;;;12.01;100.00;96003.81;10531054;28;20206;-62
2022/10/15 00:27:05;;;;;;;14.48;11.48;;;;;;;12.02;100.00;96009.88;10534931;28;20198;-62
2022/10/15 00:32:06;;;;;;;18.75;10.55;;;;;;;12.00;100.00;96006.63;10539724;28;20218;-61
2022/10/15 00:37:07;;;;;;;13.63;10.00;;;;;;;11.85;100.00;95994.31;10539425;28;20234;-60
2022/10/15 00:42:09;;;;;;;16.65;13.27;;;;;;;11.77;100.00;95989.13;10539136;28;20746;-61
2022/10/15 00:47:16;;;;;;;21.05;12.85;;;;;;;11.77;100.00;95992.56;10539539;28;20182;-61
2022/10/15 00:52:19;;;;;;;16.67;11.88;;;;;;;11.81;100.00;95992.22;10538809;28;20221;-59
2022/10/15 00:57:19;;;;;;;18.27;14.48;;;;;;;11.72;100.00;95979.19;10538633;28;20215;-61
2022/10/15 01:02:20;;;;;;;19.80;14.70;;;;;;;11.75;100.00;95978.81;10537642;28;20696;-60
2022/10/15 01:07:20;;;;;;;19.23;14.20;;;;;;;11.71;100.00;95969.69;10537712;28;20186;-60
2022/10/15 01:12:47;;;;;;;21.33;16.75;;;;;;;11.65;100.00;95965.16;10538080;28;20226;-60
2022/10/15 01:18:17;;;;;;;19.73;14.50;;;;;;;11.71;100.00;95972.31;10537931;28;20564;-58
2022/10/15 01:23:36;;;;;;;21.52;15.10;;;;;;;11.66;100.00;95969.41;10505665;28;20218;-58
2022/10/15 01:28:54;;;;;;;20.88;15.27;;;;;;;11.67;100.00;95967.59;10518472;28;20229;-59
2022/10/15 01:34:01;;;;;;;23.33;16.85;;;;;;;11.59;100.00;95960.63;10519384;28;20235;-57
2022/10/15 01:39:13;;;;;;;20.80;13.68;;;;;;;11.65;100.00;95952.03;10518026;28;20270;-58
2022/10/15 01:44:20;;;;;;;19.50;15.93;;;;;;;11.66;100.00;95947.63;10518770;28;20210;-59
2022/10/15 01:49:44;;;;;;;25.00;17.17;;;;;;;11.56;100.00;95934.78;10504916;28;20756;-60
2022/10/15 01:54:46;;;;;;;22.80;13.30;;;;;;;11.60;100.00;95938.66;10518314;28;20215;-60
2022/10/15 01:59:48;;;;;;;25.55;17.33;;;;;;;11.61;100.00;95940.31;10501317;28;20240;-58
2022/10/15 02:04:49;;;;;;;22.10;15.52;;;;;;;11.70;100.00;95941.00;10518646;28;20236;-60
2022/10/15 02:09:59;;;;;;;25.60;17.88;;;;;;;11.72;100.00;95931.16;10517584;28;20631;-59
2022/10/15 02:15:18;;;;;;;22.75;17.85;;;;;;;11.67;100.00;95917.75;10536287;28;20213;-58
2022/10/15 02:20:23;;;;;;;22.38;13.95;;;;;;;11.66;100.00;95919.56;10534983;28;20245;-59
2022/10/15 02:25:25;;;;;;;22.10;17.67;;;;;;;11.68;100.00;95922.00;10500936;28;20326;-59
2022/10/15 02:30:26;;;;;;;23.17;18.08;;;;;;;11.70;100.00;95912.13;10516272;28;20206;-60
2022/10/15 02:35:27;;;;;;;23.52;18.17;;;;;;;11.65;100.00;95909.25;10516672;28;20191;-61
2022/10/15 02:40:28;;;;;;;21.48;18.08;;;;;;;11.62;100.00;95902.56;10516743;28;20241;-61
2022/10/15 02:45:30;;;;;;;27.42;19.30;;;;;;;11.73;100.00;95896.88;10516705;28;20216;-60
2022/10/15 02:50:30;;;;;;;23.85;19.70;;;;;;;11.73;100.00;95896.03;10514936;28;20655;-60
2022/10/15 02:55:31;;;;;;;24.33;19.65;;;;;;;11.69;100.00;95887.72;10516270;28;20186;-59
2022/10/15 03:00:31;;;;;;;24.42;18.02;;;;;;;11.60;100.00;95884.38;10533505;28;20210;-61
2022/10/15 03:05:33;;;;;;;26.45;20.38;;;;;;;11.64;100.00;95886.63;10515097;28;20205;-60
2022/10/15 03:10:34;;;;;;;23.90;20.35;;;;;;;11.68;100.00;95883.47;10514932;28;20214;-60
2022/10/15 03:15:35;;;;;;;26.48;19.48;;;;;;;11.69;100.00;95882.47;10533718;28;20190;-58
2022/10/15 03:20:36;;;;;;;25.60;20.13;;;;;;;11.62;100.00;95872.91;10535372;22;20235;-63
2022/10/15 03:25:36;;;;;;;24.73;19.73;;;;;;;11.68;100.00;95872.16;10494246;28;20194;-62
2022/10/15 03:30:38;;;;;;;23.77;18.02;;;;;;;11.72;100.00;95863.75;10475509;28;20302;-61
2022/10/15 03:35:40;;;;;;;23.95;19.23;;;;;;;11.72;100.00;95863.75;10476171;28;20244;-64
2022/10/15 03:40:42;;;;;;;23.17;17.85;;;;;;;11.71;100.00;95848.19;10475950;28;20214;-62
2022/10/15 03:45:53;;;;;;;25.60;18.40;;;;;;;11.70;100.00;95843.94;10475857;28;20187;-63
2022/10/15 03:50:56;;;;;;;21.80;18.90;;;;;;;11.66;100.00;95853.97;10475052;28;20227;-63
2022/10/15 03:56:02;;;;;;;18.80;16.65;;;;;;;11.75;100.00;95852.88;10475544;28;20206;-63
2022/10/15 04:01:21;;;;;;;20.33;17.23;;;;;;;11.74;100.00;95846.00;10473896;28;20681;-60
2022/10/15 04:06:22;;;;;;;24.33;16.35;;;;;;;11.74;100.00;95851.25;10475401;28;20192;-61
2022/10/15 04:11:22;;;;;;;16.02;13.23;;;;;;;11.82;100.00;95857.38;10475024;28;20215;-60
2022/10/15 04:16:33;;;;;;;16.90;13.30;;;;;;;11.83;100.00;95846.69;10475732;28;20183;-62
2022/10/15 04:21:37;;;;;;;16.60;12.82;;;;;;;11.75;100.00;95845.00;10505037;28;20609;-60
2022/10/15 04:26:38;;;;;;;18.67;15.13;;;;;;;11.78;100.00;95852.50;10516952;28;20182;-59
2022/10/15 04:31:40;;;;;;;17.30;12.90;;;;;;;11.85;100.00;95851.75;10534198;28;20215;-62
2022/10/15 04:36:41;;;;;;;15.40;11.55;;;;;;;11.87;100.00;95849.78;10516660;28;20182;-60
2022/10/15 04:41:47;;;;;;;16.77;11.40;;;;;;;11.92;100.00;95857.91;10516544;28;20214;-63
2022/10/15 04:46:55;;;;;;;14.82;12.02;;;;;;;11.88;100.00;95846.13;10516533;28;20669;-63
2022/10/15 04:52:16;;;;;;;13.77;11.57;;;;;;;11.90;100.00;95854.66;10515994;28;20275;-62
2022/10/15 04:57:25;;;;;;;14.75;11.90;;;;;;;11.88;100.00;95843.53;10499762;28;20649;-63
2022/10/15 05:02:27;;;;;;;14.48;9.88;;;;;;;11.87;100.00;95839.28;10533475;28;20268;-63
2022/10/15 05:07:39;;;;;;;14.27;11.35;;;;;;;11.82;100.00;95841.63;10515911;28;20194;-63
2022/10/15 05:12:39;;;;;;;14.93;9.90;;;;;;;11.86;100.00;95842.91;10516874;28;20222;-63
2022/10/15 05:17:41;;;;;;;11.18;8.90;;;;;;;11.79;100.00;95853.31;10523218;28;20210;-63
2022/10/15 05:22:42;;;;;;;13.50;10.50;;;;;;;11.77;100.00;95856.13;10521784;28;20230;-63
2022/10/15 05:27:43;;;;;;;14.98;10.00;;;;;;;11.85;100.00;95851.75;10523127;28;20194;-62
2022/10/15 05:32:44;;;;;;;10.45;8.25;;;;;;;11.87;100.00;95858.47;10522140;28;20222;-61
2022/10/15 05:37:49;;;;;;;8.00;6.68;;;;;;;11.90;100.00;95859.91;10522878;28;20186;-60
2022/10/15 05:42:52;;;;;;;8.88;7.15;;;;;;;11.94;100.00;95855.94;10522020;28;20215;-61
2022/10/15 05:47:54;;;;;;;9.32;6.70;;;;;;;11.96;100.00;95864.44;10524098;28;20190;-63
2022/10/15 05:52:54;;;;;;;6.20;5.07;;;;;;;11.99;100.00;95856.19;10522733;28;20218;-62
2022/10/15 05:58:03;;;;;;;5.07;4.38;;;;;;;12.04;100.00;95858.25;10521534;28;20216;-62
2022/10/15 06:03:03;;;;;;;5.32;4.75;;;;;;;11.99;100.00;95864.06;10539376;28;20206;-63
2022/10/15 06:08:03;;;;;;;3.85;2.95;;;;;;;12.03;100.00;95849.56;10539759;28;20213;-63
2022/10/15 06:13:04;;;;;;;3.40;3.10;;;;;;;12.04;100.00;95847.75;10528916;28;20213;-63
2022/10/15 06:18:05;;;;;;;3.30;3.00;;;;;;;12.04;100.00;95838.06;10513049;28;20264;-63
2022/10/15 06:23:06;;;;;;;3.75;3.03;;;;;;;12.07;100.00;95842.13;10525240;28;20230;-63
2022/10/15 06:28:06;;;;;;;2.92;2.22;;;;;;;12.16;100.00;95850.69;10514527;28;20187;-63
2022/10/15 06:33:15;;;;;;;3.08;2.78;;;;;;;12.08;100.00;95857.69;10495365;28;20717;-63
2022/10/15 06:38:16;;;;;;;2.47;2.28;;;;;;;12.25;100.00;95883.69;10507285;28;20195;-62
2022/10/15 06:43:16;;;;;;;1.83;1.73;;;;;;;12.37;100.00;95884.00;10511357;28;20613;-62
2022/10/15 06:48:17;;;;;;;2.75;1.98;;;;;;;12.43;100.00;95878.81;10529981;28;20194;-60
2022/10/15 06:53:17;;;;;;;3.75;2.70;;;;;;;12.40;100.00;95887.06;10529762;28;20214;-60
2022/10/15 06:58:17;;;;;;;2.83;2.10;;;;;;;12.48;100.00;95889.59;10527460;28;20315;-63
2022/10/15 07:03:18;;;;;;;2.70;1.88;;;;;;;12.68;100.00;95888.94;10532729;28;20210;-63
2022/10/15 07:08:18;;;;;;;2.50;2.00;;;;;;;12.71;100.00;95887.72;10536202;28;20186;-63
2022/10/15 07:13:19;;;;;;;4.22;2.70;;;;;;;12.79;100.00;95890.25;10533389;28;20214;-63
2022/10/15 07:18:19;;;;;;;6.18;2.88;;;;;;;12.95;100.00;95883.88;10535865;28;20220;-62
2022/10/15 07:23:19;;;;;;;3.67;3.28;;;;;;;12.97;100.00;95892.38;10534090;28;20247;-63
2022/10/15 07:28:20;;;;;;;4.28;3.30;;;;;;;13.09;100.00;95896.09;10534980;28;20187;-61
2022/10/15 07:33:20;;;;;;;3.30;3.00;;;;;;;13.16;100.00;95899.59;10533648;28;20278;-62
2022/10/15 07:38:33;;;;;;;2.95;2.75;;;;;;;13.14;100.00;95893.72;10533809;28;20194;-61
2022/10/15 07:43:34;;;;;;;3.58;3.28;;;;;;;13.24;100.00;95880.22;10528071;28;20736;-63
2022/10/15 07:48:34;;;;;;;2.80;2.60;;;;;;;13.31;100.00;95888.97;10508637;28;20187;-60
2022/10/15 07:53:35;;;;;;;3.30;3.00;;;;;;;13.33;100.00;95888.75;10498840;28;20219;-63
2022/10/15 07:58:37;;;;;;;3.53;3.20;;;;;;;13.32;100.00;95905.53;10492294;28;20206;-64
2022/10/15 08:03:37;;;;;;;4.00;3.60;;;;;;;13.49;100.00;95913.97;10499989;28;20294;-64
2022/10/15 08:08:37;;;;;;;2.90;2.70;;;;;;;13.72;100.00;95917.13;10519876;28;20713;-63
2022/10/15 08:13:40;;;;;;;2.90;2.47;;;;;;;13.81;100.00;95917.75;10533186;28;20272;-61
2022/10/15 08:18:41;;;;;;;2.58;2.38;;;;;;;13.76;100.00;95928.06;10530787;28;20191;-61
2022/10/15 08:23:41;;;;;;;2.80;2.42;;;;;;;13.93;100.00;95920.66;10506097;28;20708;-63
2022/10/15 08:28:42;;;;;;;2.53;2.33;;;;;;;14.05;100.00;95924.34;10521270;28;20206;-64
2022/10/15 08:33:44;;;;;;;2.42;2.22;;;;;;;14.04;100.00;95930.63;10528787;28;20226;-61
2022/10/15 08:38:45;;;;;;;3.10;2.80;;;;;;;14.19;100.00;95924.38;10528715;28;20278;-60
2022/10/15 08:43:46;;;;;;;2.63;2.42;;;;;;;14.26;100.00;95928.66;10529580;28;20205;-60
2022/10/15 08:48:52;;;;;;;2.45;2.25;;;;;;;14.47;100.00;95932.13;10499715;28;20195;-62
2022/10/15 08:53:59;;;;;;;3.00;2.75;;;;;;;14.82;100.00;95925.91;10477572;28;20227;-62
2022/10/15 08:59:06;;;;;;;2.90;2.70;;;;;;;15.15;100.00;95908.25;10477769;28;20677;-62
2022/10/15 09:04:36;;;;;;;3.50;3.20;;;;;;;15.56;100.00;95916.06;10477001;28;20290;-62
2022/10/15 09:09:50;;;;;;;3.33;2.55;;;;;;;15.27;100.00;95934.03;10505473;28;20202;-62
2022/10/15 09:14:53;;;;;;;2.50;2.30;;;;;;;15.53;100.00;95917.31;10518314;28;20758;-63
2022/10/15 09:19:55;;;;;;;5.57;1.88;;;;;;;15.47;100.00;95934.00;10536289;28;20194;-61
2022/10/15 09:24:55;;;;;;;4.68;1.98;;;;;;;15.48;100.00;95944.34;10535888;28;20318;-60
2022/10/15 09:30:33;;;;;;;2.30;2.20;;;;;;;15.50;100.00;95944.13;10538096;23;20246;-62
2022/10/15 09:35:40;;;;;;;1.92;1.83;;;;;;;15.55;100.00;95951.44;10535715;28;20580;-59
2022/10/15 09:41:05;;;;;;;1.60;1.50;;;;;;;15.67;100.00;95944.50;10526669;28;20207;-60
2022/10/15 09:46:08;;;;;;;2.65;1.45;;;;;;;15.25;100.00;95971.19;10534521;28;20202;-60
2022/10/15 09:51:33;;;;;;;1.40;1.30;;;;;;;15.51;100.00;95972.97;10491519;28;20242;-57
2022/10/15 09:56:35;;;;;;;1.85;1.58;;;;;;;14.93;100.00;95989.44;10491938;28;20692;-58
2022/10/15 10:01:35;;;;;;;1.52;1.42;;;;;;;15.56;100.00;95982.91;10496351;28;20221;-61
2022/10/15 10:07:08;;;;;;;1.30;1.20;;;;;;;15.30;100.00;95987.19;10533692;28;20274;-62
2022/10/15 10:12:19;;;;;;;4.03;1.52;;;;;;;15.54;100.00;95982.28;10498618;28;20222;-61
2022/10/15 10:17:22;;;;;;;1.38;1.20;;;;;;;15.61;100.00;95987.56;10485876;28;20218;-61
2022/10/15 10:22:22;;;;;;;3.42;1.30;;;;;;;15.99;100.00;95977.13;10493267;28;20633;-59
2022/10/15 10:27:26;;;;;;;1.65;1.42;;;;;;;15.79;100.00;95974.56;10474833;28;20249;-61
2022/10/15 10:32:30;;;;;;;0.95;0.95;;;;;;;16.12;100.00;95988.66;10492397;28;20631;-60
2022/10/15 10:37:40;;;;;;;1.10;0.90;;;;;;;17.26;100.00;95962.38;10492249;28;20317;-59
2022/10/15 10:42:42;;;;;;;1.60;1.30;;;;;;;15.78;100.00;95990.59;10474460;28;20705;-62
2022/10/15 10:47:43;;;;;;;3.15;1.30;;;;;;;15.07;100.00;96003.44;10473208;28;20210;-59
2022/10/15 10:52:43;;;;;;;7.38;4.85;;;;;;;15.89;100.00;96005.81;10490285;28;20297;-60
2022/10/15 10:57:50;;;;;;;2.25;1.38;;;;;;;15.52;100.00;96008.88;10490813;28;20219;-62
2022/10/15 11:02:51;;;;;;;1.92;1.10;;;;;;;15.37;100.00;96002.22;10492251;28;20183;-61
2022/10/15 11:08:16;;;;;;;6.38;1.30;;;;;;;15.76;100.00;96004.00;10491895;28;20214;-61
2022/10/15 11:13:24;;;;;;;4.78;1.45;;;;;;;15.68;100.00;96012.94;10490898;28;20592;-58
2022/10/15 11:18:30;;;;;;;4.38;1.60;;;;;;;15.23;100.00;96020.69;10491490;28;20345;-62
2022/10/15 11:23:39;;;;;;;3.28;1.90;;;;;;;15.06;100.00;96022.91;10473806;28;20192;-60
2022/10/15 11:28:45;;;;;;;1.98;1.75;;;;;;;15.12;100.00;96023.94;10491107;28;20692;-61
2022/10/15 11:34:00;;;;;;;1.77;1.67;;;;;;;15.49;100.00;96016.41;10496954;28;20206;-60
2022/10/15 11:39:26;;;;;;;1.55;1.40;;;;;;;15.66;100.00;96012.31;10511808;28;20300;-60
2022/10/15 11:44:47;;;;;;;1.80;1.70;;;;;;;16.09;100.00;96004.94;10522093;28;20262;-61
2022/10/15 11:49:57;;;;;;;1.80;1.70;;;;;;;15.54;100.00;96013.97;10473036;28;20298;-60
2022/10/15 11:55:16;;;;;;;1.70;1.60;;;;;;;15.78;100.00;96031.03;10490753;28;20223;-61
2022/10/15 12:00:23;;;;;;;2.10;1.67;;;;;;;15.50;100.00;96032.06;10472497;28;20207;-59
2022/10/15 12:05:30;;;;;;;4.57;1.40;;;;;;;15.86;100.00;96027.34;10490357;28;20199;-62
2022/10/15 12:10:58;;;;;;;1.00;0.90;;;;;;;16.52;100.00;96038.72;10490091;28;20215;-58
2022/10/15 12:16:27;;;;;;;1.85;1.05;;;;;;;17.58;100.00;95999.31;10489698;28;20262;-57
2022/10/15 12:21:32;;;;;;;2.50;0.98;;;;;;;15.97;100.00;96041.75;10490590;28;20587;-60
2022/10/15 12:26:33;;;;;;;0.77;0.77;;;;;;;15.68;100.00;96039.34;10497959;28;20699;-60
2022/10/15 12:31:50;;;;;;;14.48;7.40;;;;;;;16.32;100.00;96036.16;10512142;28;20222;-57
2022/10/15 12:36:59;;;;;;;1.40;1.20;;;;;;;16.60;100.00;96041.13;10501583;28;20214;-60
2022/10/15 12:42:00;;;;;;;1.13;0.80;;;;;;;15.97;100.00;96042.59;10540176;28;20190;-61
2022/10/15 12:47:01;;;;;;;0.57;0.57;;;;;;;15.53;100.00;96059.88;10542555;28;20634;-62
2022/10/15 12:52:40;;;;;;;0.60;0.60;;;;;;;14.78;100.00;96058.16;10524710;28;20206;-60
2022/10/15 12:57:43;;;;;;;0.88;0.50;;;;;;;15.53;100.00;96059.88;10542253;28;20651;-61
2022/10/15 13:02:45;;;;;;;2.33;1.40;;;;;;;17.18;100.00;96040.22;10530531;28;20175;-60
2022/10/15 13:07:48;;;;;;;2.20;1.70;;;;;;;17.63;100.00;96021.50;10518263;28;20207;-58
2022/10/15 13:13:09;;;;;;;0.85;0.85;;;;;;;19.13;100.00;95993.81;10519831;28;20222;-60
2022/10/15 13:18:12;;;;;;;11.45;10.25;;;;;;;18.59;100.00;96002.53;10498307;28;20211;-60
2022/10/15 13:23:20;;;;;;;25.92;13.52;;;;;;;16.76;100.00;96006.22;10480755;28;20187;-61
2022/10/15 13:28:30;;;;;;;3.60;2.85;;;;;;;17.14;100.00;96001.94;10495546;28;20623;-58
2022/10/15 13:33:31;;;;;;;0.73;0.73;;;;;;;17.85;100.00;95997.22;10497845;28;20226;-62
2022/10/15 13:38:32;;;;;;;0.50;0.50;;;;;;;17.23;100.00;96007.81;10497038;28;20727;-62
2022/10/15 13:43:32;;;;;;;0.70;0.70;;;;;;;17.60;100.00;95987.50;10498718;28;20657;-63
2022/10/15 13:48:40;;;;;;;0.80;0.77;;;;;;;18.50;100.00;96002.00;10498459;28;20210;-61
2022/10/15 13:53:41;;;;;;;0.70;0.70;;;;;;;18.34;99.19;95981.41;10497962;28;20219;-62
2022/10/15 13:58:41;;;;;;;1.15;0.70;;;;;;;18.49;98.71;95988.97;10498356;28;20705;-63
2022/10/15 14:03:55;;;;;;;1.13;0.80;;;;;;;18.40;98.18;96001.72;10497888;28;20533;-64
2022/10/15 14:08:58;;;;;;;0.80;0.70;;;;;;;18.40;97.13;95987.66;10497851;28;20661;-62
2022/10/15 14:13:58;;;;;;;1.00;1.00;;;;;;;17.79;100.00;96003.41;10497495;28;20227;-65
2022/10/15 14:19:09;;;;;;;2.47;1.10;;;;;;;17.03;100.00;96011.41;10497369;28;20211;-63
2022/10/15 14:24:16;;;;;;;1.20;1.10;;;;;;;16.64;100.00;96023.81;10479362;28;20184;-63
2022/10/15 14:29:27;;;;;;;1.50;1.40;;;;;;;17.01;100.00;96024.00;10478865;28;20308;-62
2022/10/15 14:34:40;;;;;;;3.67;0.80;;;;;;;17.11;100.00;96026.19;10496585;28;20310;-63
2022/10/15 14:39:41;;;;;;;0.60;0.60;;;;;;;16.72;100.00;96031.50;10496545;28;20207;-64
2022/10/15 14:44:45;;;;;;;1.33;0.90;;;;;;;16.66;100.00;96045.59;10496237;28;20191;-63
2022/10/15 14:49:46;;;;;;;0.80;0.60;;;;;;;16.63;100.00;96048.66;10495781;28;20211;-61
2022/10/15 14:55:00;;;;;;;6.40;5.35;;;;;;;17.41;98.14;96014.97;10478148;28;20219;-61
2022/10/15 15:00:03;;;;;;;0.77;0.77;;;;;;;17.31;97.22;96010.16;10477622;28;20242;-60
2022/10/15 15:05:09;;;;;;;0.57;0.50;;;;;;;18.07;93.56;95995.00;10495445;28;20201;-58
2022/10/15 15:10:10;;;;;;;1.27;0.70;;;;;;;16.93;94.48;96003.13;10495335;28;20206;-62
2022/10/15 15:15:15;;;;;;;0.85;0.80;;;;;;;16.60;99.93;96027.91;10494939;28;20223;-63
2022/10/15 15:20:19;;;;;;;2.58;0.85;;;;;;;16.38;100.00;96038.75;10494969;28;20581;-62
2022/10/15 15:25:27;;;;;;;4.07;3.50;;;;;;;16.04;100.00;96050.47;10494368;28;20300;-63
2022/10/15 15:30:30;;;;;;;3.25;2.55;;;;;;;15.81;100.00;96050.94;10469229;22;20789;-62
2022/10/15 15:36:09;;;;;;;2.55;1.30;;;;;;;15.41;100.00;96077.34;10411217;28;20628;-63
2022/10/15 15:41:12;;;;;;;2.90;1.38;;;;;;;15.42;100.00;96071.84;10411100;28;20308;-64
2022/10/15 15:46:13;;;;;;;1.45;0.80;;;;;;;15.21;100.00;96098.44;10409238;28;20299;-61
2022/10/15 15:51:23;;;;;;;1.10;1.00;;;;;;;15.24;100.00;96101.47;10375576;28;20217;-61
2022/10/15 15:56:23;;;;;;;0.90;0.90;;;;;;;15.04;100.00;96090.91;10386504;28;20556;-65
2022/10/15 16:01:24;;;;;;;2.67;1.00;;;;;;;15.03;100.00;96091.09;10389697;28;20212;-63
2022/10/15 16:06:24;;;;;;;1.02;1.00;;;;;;;14.89;100.00;96106.88;10391331;28;20200;-64
2022/10/15 16:11:25;;;;;;;0.90;0.80;;;;;;;14.86;100.00;96098.56;10410343;28;20224;-63
2022/10/15 16:16:25;;;;;;;0.90;0.90;;;;;;;14.73;100.00;96084.31;10410575;28;20192;-62
2022/10/15 16:21:26;;;;;;;2.15;1.30;;;;;;;14.59;100.00;96096.63;10410722;28;20208;-63
2022/10/15 16:26:27;;;;;;;9.07;5.38;;;;;;;14.39;100.00;96093.88;10410361;28;20200;-63
2022/10/15 16:31:32;;;;;;;8.10;3.28;;;;;;;14.13;100.00;96107.72;10429416;28;20303;-62
2022/10/15 16:36:32;;;;;;;21.48;12.93;;;;;;;14.02;100.00;96122.25;10446732;28;20188;-62
2022/10/15 16:41:32;;;;;;;52.92;30.70;;;;;;;14.10;100.00;96134.44;10449975;28;20204;-63
2022/10/15 16:46:33;;;;;;;11.65;8.38;;;;;;;14.09;100.00;96128.38;10445366;28;20196;-61
2022/10/15 16:51:33;;;;;;;19.98;12.75;;;;;;;13.95;100.00;96141.63;10448708;28;20223;-62
2022/10/15 16:56:34;;;;;;;58.83;30.38;;;;;;;13.99;100.00;96148.16;10447165;28;20185;-61
2022/10/15 17:01:35;;;;;;;60.03;32.75;;;;;;;13.82;100.00;96148.44;10448272;28;20227;-62
2022/10/15 17:06:35;;;;;;;23.25;13.63;;;;;;;13.69;100.00;96154.41;10443746;28;20564;-63
2022/10/15 17:11:41;;;;;;;57.15;27.15;;;;;;;13.72;100.00;96163.75;10450187;28;20252;-63
2022/10/15 17:16:44;;;;;;;66.57;35.40;;;;;;;13.71;100.00;96155.03;10453630;28;20203;-62
2022/10/15 17:21:44;;;;;;;67.70;32.40;;;;;;;13.56;100.00;96168.25;10447075;28;20944;-62
2022/10/15 17:26:46;;;;;;;19.05;9.10;;;;;;;13.60;100.00;96175.78;10438257;28;20270;-62
2022/10/15 17:31:47;;;;;;;26.48;13.27;;;;;;;13.49;100.00;96182.34;10454994;28;20752;-64
2022/10/15 17:36:48;;;;;;;63.20;34.70;;;;;;;13.44;100.00;96190.81;10451568;28;20199;-63
2022/10/15 17:41:49;;;;;;;3.90;3.30;;;;;;;13.30;100.00;96187.22;10451082;28;20212;-63
2022/10/15 17:46:51;;;;;;;5.10;4.60;;;;;;;13.29;100.00;96177.72;10452942;28;20270;-64
2022/10/15 17:51:53;;;;;;;3.97;2.38;;;;;;;13.16;100.00;96190.72;10448704;28;20245;-63
2022/10/15 17:56:54;;;;;;;8.25;5.47;;;;;;;12.98;100.00;96197.16;10455818;28;20195;-63
2022/10/15 18:01:56;;;;;;;5.25;3.67;;;;;;;12.83;100.00;96201.63;10452299;28;20215;-62
2022/10/15 18:06:57;;;;;;;8.27;4.35;;;;;;;12.76;100.00;96227.84;10455206;28;20283;-63
2022/10/15 18:11:59;;;;;;;8.20;5.03;;;;;;;12.70;100.00;96223.31;10456205;28;20224;-64
2022/10/15 18:17:04;;;;;;;4.18;2.70;;;;;;;12.74;100.00;96227.22;10448772;28;20204;-62
2022/10/15 18:22:05;;;;;;;4.30;2.05;;;;;;;12.76;100.00;96230.47;10453418;28;20235;-64
2022/10/15 18:27:05;;;;;;;3.13;2.85;;;;;;;12.83;100.00;96215.63;10453811;28;20241;-62
2022/10/15 18:32:06;;;;;;;3.17;2.35;;;;;;;12.93;100.00;96219.78;10454373;28;20256;-64
2022/10/15 18:37:06;;;;;;;3.50;2.78;;;;;;;12.75;100.00;96213.06;10453594;28;20188;-63
2022/10/15 18:42:06;;;;;;;5.53;2.95;;;;;;;12.91;100.00;96219.97;10436575;28;20235;-63
2022/10/15 18:47:07;;;;;;;4.90;4.13;;;;;;;12.91;100.00;96221.75;10451862;28;20682;-63
2022/10/15 18:52:15;;;;;;;6.50;4.88;;;;;;;12.82;100.00;96227.13;10443330;28;20618;-63
2022/10/15 18:57:15;;;;;;;8.88;5.55;;;;;;;12.79;100.00;96237.19;10438159;28;20188;-64
2022/10/15 19:02:16;;;;;;;7.28;6.00;;;;;;;12.74;100.00;96229.03;10452498;28;20714;-62
2022/10/15 19:07:16;;;;;;;8.30;6.82;;;;;;;12.83;100.00;96243.69;10438624;28;20690;-64
2022/10/15 19:12:18;;;;;;;6.70;6.05;;;;;;;12.92;100.00;96231.28;10442064;28;20273;-63
2022/10/15 19:17:19;;;;;;;7.97;6.20;;;;;;;12.95;100.00;96230.91;10451596;28;20269;-62
2022/10/15 19:22:19;;;;;;;6.97;6.25;;;;;;;12.95;100.00;96230.91;10452273;28;20226;-63
2022/10/15 19:27:20;;;;;;;7.72;6.35;;;;;;;12.87;100.00;96231.81;10451983;28;20254;-62
2022/10/15 19:32:20;;;;;;;6.47;5.88;;;;;;;12.90;100.00;96235.91;10449826;28;20234;-63
2022/10/15 19:37:20;;;;;;;6.47;5.32;;;;;;;12.98;100.00;96243.69;10451604;28;20199;-62
2022/10/15 19:42:21;;;;;;;10.18;5.95;;;;;;;12.97;100.00;96247.31;10451887;28;20219;-62
2022/10/15 19:47:21;;;;;;;7.10;6.35;;;;;;;12.99;100.00;96243.50;10445235;28;20249;-62
2022/10/15 19:52:22;;;;;;;6.40;5.80;;;;;;;12.96;100.00;96251.75;10437644;28;20223;-63
2022/10/15 19:57:24;;;;;;;5.97;5.40;;;;;;;12.94;100.00;96242.41;10451742;28;20282;-64
2022/10/15 20:02:25;;;;;;;7.05;5.15;;;;;;;12.91;100.00;96242.78;10451246;28;20297;-62
2022/10/15 20:07:25;;;;;;;4.95;4.45;;;;;;;13.09;100.00;96259.00;10449092;28;20203;-63
2022/10/15 20:12:25;;;;;;;4.97;4.43;;;;;;;13.12;100.00;96260.44;10447806;28;20227;-63
2022/10/15 20:17:26;;;;;;;6.20;4.53;;;;;;;13.28;100.00;96254.97;10452228;28;20642;-63
2022/10/15 20:22:27;;;;;;;4.00;3.60;;;;;;;13.26;100.00;96258.78;10447273;28;20253;-63
2022/10/15 20:27:27;;;;;;;5.97;3.72;;;;;;;13.26;100.00;96275.41;10451518;28;20271;-63
2022/10/15 20:32:27;;;;;;;6.05;3.80;;;;;;;13.19;100.00;96277.94;10448583;28;20231;-63
2022/10/15 20:37:28;;;;;;;3.90;3.60;;;;;;;13.25;100.00;96283.47;10451942;28;20283;-63
2022/10/15 20:42:28;;;;;;;4.45;3.38;;;;;;;13.27;100.00;96294.63;10447421;28;20219;-63
2022/10/15 20:47:29;;;;;;;5.53;3.65;;;;;;;13.34;100.00;96299.00;10459798;28;20218;-63
2022/10/15 20:52:29;;;;;;;9.20;3.47;;;;;;;13.35;100.00;96326.13;10439200;28;20234;-61
2022/10/15 20:57:30;;;;;;;3.97;3.58;;;;;;;13.49;100.00;96330.56;10459299;28;20340;-63
2022/10/15 21:02:30;;;;;;;3.53;3.10;;;;;;;13.67;100.00;96326.69;10456764;28;20216;-63
2022/10/15 21:07:31;;;;;;;4.55;3.38;;;;;;;13.85;100.00;96332.38;10458091;28;20188;-63
2022/10/15 21:12:31;;;;;;;7.60;3.72;;;;;;;13.81;100.00;96328.47;10455569;28;20224;-63
2022/10/15 21:17:31;;;;;;;4.03;3.63;;;;;;;13.88;100.00;96324.09;10458569;28;20301;-62
2022/10/15 21:22:32;;;;;;;3.30;3.00;;;;;;;13.86;100.00;96336.63;10453336;28;20247;-62
2022/10/15 21:27:32;;;;;;;3.47;3.00;;;;;;;13.98;100.00;96341.41;10458198;28;20192;-63
2022/10/15 21:32:33;;;;;;;3.35;3.05;;;;;;;14.04;100.00;96340.66;10449162;28;20219;-62
2022/10/15 21:37:34;;;;;;;3.08;2.78;;;;;;;14.16;100.00;96330.44;10436925;28;20197;-63
2022/10/15 21:42:35;;;;;;;2.97;2.60;;;;;;;14.12;100.00;96337.91;10441479;28;20212;-63
2022/10/15 21:47:35;;;;;;;2.72;2.53;;;;;;;14.16;100.00;96328.63;10468088;22;20249;-61
2022/10/15 21:52:35;;;;;;;2.92;2.63;;;;;;;14.08;100.00;96329.56;10452033;28;20702;-61
2022/10/15 21:57:36;;;;;;;3.28;2.75;;;;;;;13.99;100.00;96328.03;10452660;28;20607;-61
2022/10/15 22:02:36;;;;;;;4.15;2.50;;;;;;;14.12;100.00;96340.56;10452600;28;20645;-59
2022/10/15 22:07:36;;;;;;;3.20;2.90;;;;;;;14.11;100.00;96341.53;10452806;28;20220;-61
2022/10/15 22:12:37;;;;;;;4.35;3.00;;;;;;;14.05;100.00;96350.19;10451409;28;20223;-62
2022/10/15 22:17:37;;;;;;;3.90;3.60;;;;;;;14.06;100.00;96338.66;10451159;28;20266;-62
2022/10/15 22:22:38;;;;;;;5.70;3.95;;;;;;;13.94;100.00;96335.69;10448933;28;20196;-60
2022/10/15 22:27:38;;;;;;;5.07;3.88;;;;;;;13.92;100.00;96345.63;10452519;28;20215;-61
2022/10/15 22:32:38;;;;;;;4.40;4.00;;;;;;;13.95;100.00;96352.31;10451656;28;20269;-59
2022/10/15 22:37:39;;;;;;;6.15;4.05;;;;;;;13.94;100.00;96342.81;10452463;28;20223;-59
2022/10/15 22:42:39;;;;;;;4.43;4.03;;;;;;;14.04;100.00;96356.47;10448761;28;20195;-60
2022/10/15 22:47:39;;;;;;;7.55;4.30;;;;;;;14.04;100.00;96356.47;10452002;28;20249;-61
2022/10/15 22:52:40;;;;;;;4.03;3.63;;;;;;;14.18;100.00;96352.97;10450261;28;20698;-60
2022/10/15 22:57:40;;;;;;;5.13;3.47;;;;;;;14.33;100.00;96371.31;10452203;28;20277;-59
2022/10/15 23:02:40;;;;;;;4.00;3.70;;;;;;;14.31;100.00;96377.81;10449530;28;20191;-62
2022/10/15 23:07:41;;;;;;;3.45;3.15;;;;;;;14.32;100.00;96379.41;10450866;28;20262;-61